createdAt,value
2018-04-28T00:01:47.894Z,46.02
2018-04-28T00:04:16.444Z,45.36
2018-04-28T00:06:44.865Z,45.43
2018-04-28T00:09:13.061Z,47.04
2018-04-28T00:11:41.261Z,46.14
2018-04-28T00:14:10.064Z,47.50
2018-04-28T00:16:52.261Z,46.05
2018-04-28T00:19:20.808Z,46.97
2018-04-28T00:24:49.279Z,46.19
2018-04-28T00:27:35.582Z,46.75
2018-04-28T00:30:14.637Z,46.90
2018-04-28T00:32:43.776Z,47.40
2018-04-28T00:35:12.759Z,47.57
2018-04-28T00:37:47.613Z,47.44
2018-04-28T00:43:15.906Z,48.79
2018-04-28T00:45:50.569Z,48.44
2018-04-28T00:51:42.747Z,48.81
2018-04-28T00:54:17.179Z,49.09
2018-04-28T01:00:18.270Z,49.72
2018-04-28T01:02:46.968Z,50.09
2018-04-28T01:05:21.459Z,50.04
2018-04-28T01:07:50.625Z,50.74
2018-04-28T01:10:19.774Z,50.11
2018-04-28T01:12:50.808Z,50.57
2018-04-28T01:15:22.345Z,50.39
2018-04-28T01:17:54.324Z,50.50
2018-04-28T01:20:28.960Z,50.77
2018-04-28T01:23:09.729Z,50.40
2018-04-28T01:25:42.613Z,50.52
2018-04-28T01:31:09.235Z,50.80
2018-04-28T01:33:46.377Z,49.97
2018-04-28T01:39:39.416Z,50.39
2018-04-28T01:42:20.972Z,50.20
2018-04-28T01:48:09.868Z,50.27
2018-04-28T01:50:42.906Z,49.98
2018-04-28T01:53:11.139Z,50.18
2018-04-28T01:55:40.108Z,50.66
2018-04-28T01:58:22.039Z,50.45
2018-04-28T02:01:11.617Z,50.56
2018-04-28T02:04:00.929Z,50.45
2018-04-28T02:06:45.128Z,50.30
2018-04-28T02:09:15.133Z,51.28
2018-04-28T02:11:43.360Z,50.41
2018-04-28T02:17:14.892Z,50.98
2018-04-28T02:23:07.413Z,51.19
2018-04-28T02:28:46.006Z,51.83
2018-04-28T02:34:29.147Z,52.01
2018-04-28T02:36:57.350Z,51.72
2018-04-28T02:39:27.070Z,52.04
2018-04-28T02:45:10.205Z,53.09
2018-04-28T02:47:41.442Z,54.71
2018-04-28T02:50:13.013Z,52.35
2018-04-28T02:52:43.577Z,52.83
2018-04-28T02:58:21.817Z,52.42
2018-04-28T03:00:57.786Z,52.53
2018-04-28T03:03:31.097Z,52.72
2018-04-28T03:06:04.943Z,52.58
2018-04-28T03:08:36.950Z,52.70
2018-04-28T03:11:05.618Z,52.57
2018-04-28T03:13:38.674Z,52.03
2018-04-28T03:16:10.788Z,51.98
2018-04-28T03:18:41.824Z,51.90
2018-04-28T03:21:17.848Z,51.98
2018-04-28T03:23:56.437Z,53.45
2018-04-28T03:26:28.362Z,51.92
2018-04-28T03:29:03.646Z,51.89
2018-04-28T03:31:39.539Z,52.22
2018-04-28T03:37:26.121Z,52.21
2018-04-28T03:39:58.723Z,51.63
2018-04-28T03:45:32.975Z,51.49
2018-04-28T03:48:07.222Z,50.83
2018-04-28T03:53:36.502Z,51.02
2018-04-28T03:56:05.713Z,50.48
2018-04-28T03:58:45.700Z,50.21
2018-04-28T04:01:25.505Z,50.10
2018-04-28T04:04:05.575Z,50.37
2018-04-28T04:09:37.429Z,50.02
2018-04-28T04:12:13.168Z,50.42
2018-04-28T04:14:43.023Z,51.91
2018-04-28T04:17:18.028Z,50.56
2018-04-28T04:22:49.364Z,50.82
2018-04-28T04:25:19.318Z,50.50
2018-04-28T04:27:51.112Z,51.08
2018-04-28T04:30:32.374Z,51.14
2018-04-28T04:33:01.546Z,51.16
2018-04-28T04:38:56.720Z,50.89
2018-04-28T04:44:44.215Z,51.80
2018-04-28T04:47:12.487Z,51.16
2018-04-28T04:49:56.615Z,50.80
2018-04-28T04:52:32.360Z,52.01
2018-04-28T04:55:11.250Z,51.76
2018-04-28T05:01:10.468Z,50.93
2018-04-28T05:03:45.612Z,50.87
2018-04-28T05:06:27.487Z,50.65
2018-04-28T05:09:06.483Z,50.70
2018-04-28T05:14:55.174Z,50.60
2018-04-28T05:17:31.305Z,50.71
2018-04-28T05:20:05.231Z,50.87
2018-04-28T05:22:43.159Z,50.75
2018-04-28T05:25:40.552Z,51.12
2018-04-28T05:28:32.471Z,50.76
2018-04-28T05:34:04.848Z,50.25
2018-04-28T05:36:39.897Z,50.77
2018-04-28T05:39:18.991Z,50.64
2018-04-28T05:45:28.660Z,50.26
2018-04-28T05:51:03.145Z,50.54
2018-04-28T05:53:43.361Z,50.64
2018-04-28T05:59:54.031Z,50.39
2018-04-28T06:02:28.008Z,50.92
2018-04-28T06:05:17.924Z,49.66
2018-04-28T06:07:57.807Z,49.67
2018-04-28T06:10:44.784Z,49.68
2018-04-28T06:16:33.996Z,49.29
2018-04-28T06:19:12.101Z,49.76
2018-04-28T06:21:40.335Z,50.09
2018-04-28T06:24:08.549Z,50.23
2018-04-28T06:26:37.424Z,50.20
2018-04-28T06:29:05.663Z,49.66
2018-04-28T06:31:33.865Z,50.54
2018-04-28T06:34:02.557Z,49.60
2018-04-28T06:36:31.620Z,48.85
2018-04-28T06:38:59.810Z,49.12
2018-04-28T06:41:28.146Z,49.84
2018-04-28T06:43:56.861Z,49.86
2018-04-28T06:46:25.065Z,50.05
2018-04-28T06:48:53.340Z,50.11
2018-04-28T06:51:22.080Z,50.12
2018-04-28T06:53:50.281Z,50.01
2018-04-28T06:56:18.555Z,49.91
2018-04-28T06:58:47.861Z,49.50
2018-04-28T07:01:16.092Z,49.85
2018-04-28T07:03:44.455Z,50.53
2018-04-28T07:06:13.097Z,49.30
2018-04-28T07:08:41.345Z,49.71
2018-04-28T07:11:09.585Z,49.86
2018-04-28T07:13:38.681Z,50.63
2018-04-28T07:16:06.908Z,49.58
2018-04-28T07:18:35.099Z,50.19
2018-04-28T07:21:03.821Z,49.52
2018-04-28T07:23:32.055Z,50.73
2018-04-28T07:26:00.248Z,50.16
2018-04-28T07:28:28.901Z,50.26
2018-04-28T07:30:57.139Z,50.41
2018-04-28T07:33:25.330Z,50.26
2018-04-28T07:35:54.129Z,50.06
2018-04-28T07:38:23.224Z,49.78
2018-04-28T07:40:51.447Z,49.20
2018-04-28T07:43:19.708Z,48.95
2018-04-28T07:45:48.457Z,49.04
2018-04-28T07:48:16.665Z,48.94
2018-04-28T07:50:44.845Z,49.02
2018-04-28T07:53:13.532Z,48.47
2018-04-28T07:55:41.746Z,48.20
2018-04-28T07:58:10.016Z,48.50
2018-04-28T08:00:38.698Z,48.47
2018-04-28T08:03:06.877Z,47.88
2018-04-28T08:05:35.224Z,47.70
2018-04-28T08:08:03.876Z,47.43
2018-04-28T08:10:32.111Z,48.08
2018-04-28T08:13:00.323Z,47.39
2018-04-28T08:15:29.004Z,47.91
2018-04-28T08:17:57.935Z,47.34
2018-04-28T08:20:26.148Z,47.45
2018-04-28T08:22:54.720Z,47.39
2018-04-28T08:25:24.220Z,47.59
2018-04-28T08:27:52.433Z,47.78
2018-04-28T08:30:20.646Z,48.13
2018-04-28T08:32:49.399Z,49.03
2018-04-28T08:35:17.604Z,48.48
2018-04-28T08:37:45.803Z,48.77
2018-04-28T08:40:15.790Z,49.39
2018-04-28T08:42:44.509Z,49.11
2018-04-28T08:45:12.692Z,47.99
2018-04-28T08:47:40.900Z,46.84
2018-04-28T08:50:10.366Z,46.77
2018-04-28T08:52:38.619Z,45.80
2018-04-28T08:55:06.986Z,44.99
2018-04-28T08:57:35.471Z,44.67
2018-04-28T09:00:15.560Z,44.95
2018-04-28T09:02:43.779Z,44.83
2018-04-28T09:05:12.112Z,44.50
2018-04-28T09:07:40.691Z,45.20
2018-04-28T09:10:08.883Z,44.66
2018-04-28T09:12:37.209Z,44.56
2018-04-28T09:15:05.914Z,45.04
2018-04-28T09:17:34.112Z,45.47
2018-04-28T09:20:02.475Z,45.07
2018-04-28T09:22:32.536Z,44.78
2018-04-28T09:25:01.175Z,45.00
2018-04-28T09:27:29.373Z,44.81
2018-04-28T09:29:57.711Z,45.17
2018-04-28T09:32:26.385Z,44.88
2018-04-28T09:34:54.630Z,45.31
2018-04-28T09:37:22.949Z,45.50
2018-04-28T09:39:51.628Z,44.22
2018-04-28T09:42:19.833Z,43.93
2018-04-28T09:44:48.074Z,43.64
2018-04-28T09:47:16.571Z,43.06
2018-04-28T09:49:44.765Z,44.06
2018-04-28T09:52:13.073Z,43.78
2018-04-28T09:54:41.829Z,43.77
2018-04-28T09:57:10.015Z,44.63
2018-04-28T09:59:38.349Z,42.62
2018-04-28T10:02:12.562Z,42.67
2018-04-28T10:04:41.370Z,43.01
2018-04-28T10:07:09.561Z,42.59
2018-04-28T10:09:38.258Z,42.80
2018-04-28T10:12:06.451Z,43.27
2018-04-28T10:14:34.683Z,43.04
2018-04-28T10:17:02.873Z,42.81
2018-04-28T10:19:31.641Z,42.05
2018-04-28T10:22:00.209Z,43.03
2018-04-28T10:24:29.380Z,43.07
2018-04-28T10:26:57.801Z,42.87
2018-04-28T10:29:26.030Z,42.01
2018-04-28T10:31:54.272Z,42.72
2018-04-28T10:34:23.270Z,42.05
2018-04-28T10:36:52.108Z,43.45
2018-04-28T10:39:20.670Z,42.61
2018-04-28T10:41:49.272Z,43.44
2018-04-28T10:44:18.143Z,42.52
2018-04-28T10:46:46.331Z,42.21
2018-04-28T10:49:14.907Z,42.04
2018-04-28T10:51:43.356Z,41.61
2018-04-28T10:54:11.578Z,41.32
2018-04-28T10:56:39.738Z,41.81
2018-04-28T10:59:10.784Z,41.80
2018-04-28T11:01:39.204Z,41.33
2018-04-28T11:04:07.594Z,41.34
2018-04-28T11:06:35.785Z,41.74
2018-04-28T11:09:04.587Z,42.15
2018-04-28T11:11:33.428Z,41.77
2018-04-28T11:14:01.636Z,41.40
2018-04-28T11:16:30.452Z,40.87
2018-04-28T11:18:59.253Z,41.43
2018-04-28T11:21:28.266Z,40.62
2018-04-28T11:23:56.536Z,41.45
2018-04-28T11:26:25.336Z,41.40
2018-04-28T11:28:54.275Z,41.20
2018-04-28T11:31:23.272Z,41.36
2018-04-28T11:33:51.477Z,40.26
2018-04-28T11:36:20.269Z,39.88
2018-04-28T11:38:49.144Z,41.69
2018-04-28T11:41:18.085Z,40.12
2018-04-28T11:43:46.283Z,39.75
2018-04-28T11:46:15.157Z,38.53
2018-04-28T11:48:44.041Z,37.75
2018-04-28T11:51:13.144Z,38.41
2018-04-28T11:53:41.395Z,38.16
2018-04-28T11:56:10.142Z,37.89
2018-04-28T11:58:39.019Z,39.30
2018-04-28T12:01:08.069Z,38.19
2018-04-28T12:03:36.273Z,37.93
2018-04-28T12:06:05.143Z,36.52
2018-04-28T12:08:34.000Z,35.26
2018-04-28T12:11:03.020Z,33.83
2018-04-28T12:13:31.299Z,32.51
2018-04-28T12:16:00.066Z,32.07
2018-04-28T12:18:28.919Z,33.48
2018-04-28T12:20:57.903Z,32.40
2018-04-28T12:23:26.079Z,32.97
2018-04-28T12:25:54.928Z,33.06
2018-04-28T12:28:23.912Z,32.89
2018-04-28T12:30:52.964Z,34.14
2018-04-28T12:33:21.203Z,34.68
2018-04-28T12:35:50.045Z,34.49
2018-04-28T12:38:18.859Z,35.12
2018-04-28T12:40:47.948Z,36.33
2018-04-28T12:43:16.175Z,37.14
2018-04-28T12:45:45.844Z,37.03
2018-04-28T12:48:14.111Z,36.65
2018-04-28T12:50:42.856Z,34.75
2018-04-28T12:53:11.047Z,33.71
2018-04-28T12:55:39.866Z,33.81
2018-04-28T12:58:08.727Z,34.05
2018-04-28T13:00:37.741Z,33.99
2018-04-28T13:03:05.997Z,34.31
2018-04-28T13:05:34.732Z,35.15
2018-04-28T13:08:03.671Z,35.69
2018-04-28T13:10:33.290Z,35.53
2018-04-28T13:13:01.583Z,35.34
2018-04-28T13:15:29.792Z,35.39
2018-04-28T13:17:58.611Z,35.86
2018-04-28T13:20:26.790Z,35.53
2018-04-28T13:22:55.008Z,36.00
2018-04-28T13:25:23.676Z,36.14
2018-04-28T13:27:51.925Z,35.72
2018-04-28T13:30:20.099Z,36.11
2018-04-28T13:32:48.745Z,34.65
2018-04-28T13:35:16.985Z,35.12
2018-04-28T13:37:45.173Z,35.56
2018-04-28T13:40:13.453Z,35.35
2018-04-28T13:42:41.661Z,34.26
2018-04-28T13:45:10.156Z,32.94
2018-04-28T13:47:38.651Z,32.88
2018-04-28T13:50:06.867Z,32.82
2018-04-28T13:52:35.306Z,32.73
2018-04-28T13:55:03.767Z,33.23
2018-04-28T13:57:31.969Z,33.25
2018-04-28T14:00:00.335Z,33.36
2018-04-28T14:02:28.942Z,34.68
2018-04-28T14:04:57.131Z,33.29
2018-04-28T14:07:25.566Z,33.30
2018-04-28T14:09:54.287Z,33.17
2018-04-28T14:12:22.551Z,33.18
2018-04-28T14:14:50.882Z,33.34
2018-04-28T14:17:19.354Z,33.72
2018-04-28T14:19:47.634Z,33.12
2018-04-28T14:22:15.842Z,32.06
2018-04-28T14:24:44.556Z,32.76
2018-04-28T14:27:12.833Z,32.05
2018-04-28T14:29:41.168Z,30.89
2018-04-28T14:32:09.711Z,31.32
2018-04-28T14:34:37.933Z,31.88
2018-04-28T14:37:06.288Z,32.02
2018-04-28T14:39:34.889Z,32.45
2018-04-28T14:42:03.401Z,31.81
2018-04-28T14:44:31.642Z,32.06
2018-04-28T14:47:00.019Z,31.85
2018-04-28T14:49:29.484Z,31.88
2018-04-28T14:51:58.174Z,32.08
2018-04-28T14:54:26.664Z,32.79
2018-04-28T14:56:55.359Z,32.91
2018-04-28T14:59:26.851Z,33.57
2018-04-28T15:01:55.467Z,33.87
2018-04-28T15:04:23.680Z,33.34
2018-04-28T15:06:52.076Z,33.18
2018-04-28T15:09:20.626Z,33.08
2018-04-28T15:11:48.885Z,33.46
2018-04-28T15:14:17.271Z,33.07
2018-04-28T15:16:45.857Z,32.88
2018-04-28T15:19:14.098Z,32.84
2018-04-28T15:21:42.322Z,32.25
2018-04-28T15:24:11.039Z,32.87
2018-04-28T15:26:39.253Z,32.60
2018-04-28T15:29:07.662Z,33.50
2018-04-28T15:31:36.306Z,33.94
2018-04-28T15:34:04.510Z,34.24
2018-04-28T15:36:32.747Z,34.22
2018-04-28T15:39:01.405Z,34.58
2018-04-28T15:41:29.645Z,34.86
2018-04-28T15:43:58.040Z,35.13
2018-04-28T15:46:26.618Z,35.21
2018-04-28T15:48:54.806Z,34.02
2018-04-28T15:51:23.115Z,35.61
2018-04-28T15:53:51.779Z,34.88
2018-04-28T15:56:19.961Z,35.93
2018-04-28T15:58:48.308Z,35.48
2018-04-28T16:01:17.076Z,35.77
2018-04-28T16:03:45.272Z,35.33
2018-04-28T16:06:13.510Z,35.42
2018-04-28T16:08:42.049Z,36.32
2018-04-28T16:11:11.612Z,35.62
2018-04-28T16:13:39.810Z,36.28
2018-04-28T16:16:08.009Z,36.61
2018-04-28T16:18:36.673Z,36.10
2018-04-28T16:21:04.891Z,36.04
2018-04-28T16:23:33.136Z,36.06
2018-04-28T16:26:01.858Z,36.46
2018-04-28T16:28:30.063Z,35.62
2018-04-28T16:30:58.318Z,36.48
2018-04-28T16:33:27.001Z,36.67
2018-04-28T16:35:55.174Z,36.44
2018-04-28T16:38:23.413Z,36.46
2018-04-28T16:40:51.642Z,36.77
2018-04-28T16:43:19.858Z,36.63
2018-04-28T16:45:48.355Z,36.84
2018-04-28T16:48:16.612Z,37.45
2018-04-28T16:50:45.600Z,36.87
2018-04-28T16:53:13.733Z,37.01
2018-04-28T16:55:41.957Z,37.99
2018-04-28T16:58:10.161Z,36.90
2018-04-28T17:00:38.589Z,37.70
2018-04-28T17:03:06.795Z,36.91
2018-04-28T17:05:34.996Z,37.53
2018-04-28T17:08:03.479Z,37.15
2018-04-28T17:10:31.661Z,37.09
2018-04-28T17:13:00.744Z,37.79
2018-04-28T17:15:29.201Z,37.18
2018-04-28T17:17:57.934Z,37.36
2018-04-28T17:20:26.140Z,37.36
2018-04-28T17:22:54.337Z,37.38
2018-04-28T17:25:22.557Z,37.53
2018-04-28T17:27:50.757Z,37.04
2018-04-28T17:30:19.143Z,37.48
2018-04-28T17:32:47.419Z,37.86
2018-04-28T17:35:15.691Z,37.74
2018-04-28T17:37:44.383Z,37.55
2018-04-28T17:40:12.591Z,37.76
2018-04-28T17:42:40.794Z,38.13
2018-04-28T17:45:09.793Z,37.79
2018-04-28T17:47:38.002Z,37.98
2018-04-28T17:50:06.184Z,37.98
2018-04-28T17:52:34.649Z,38.03
2018-04-28T17:55:02.874Z,39.38
2018-04-28T17:57:31.063Z,39.68
2018-04-28T17:59:59.616Z,39.91
2018-04-28T18:02:27.819Z,40.10
2018-04-28T18:04:56.028Z,40.58
2018-04-28T18:07:24.593Z,41.21
2018-04-28T18:09:52.808Z,41.79
2018-04-28T18:12:21.105Z,40.78
2018-04-28T18:14:49.791Z,41.08
2018-04-28T18:17:18.020Z,41.74
2018-04-28T18:19:46.377Z,40.56
2018-04-28T18:22:15.002Z,40.71
2018-04-28T18:24:43.216Z,40.39
2018-04-28T18:27:11.625Z,40.56
2018-04-28T18:29:40.225Z,40.21
2018-04-28T18:32:08.985Z,39.73
2018-04-28T18:34:37.249Z,40.33
2018-04-28T18:37:05.776Z,40.00
2018-04-28T18:39:33.995Z,40.44
2018-04-28T18:42:02.209Z,41.49
2018-04-28T18:44:30.963Z,40.92
2018-04-28T18:46:59.201Z,41.27
2018-04-28T18:49:27.408Z,41.08
2018-04-28T18:51:56.026Z,40.84
2018-04-28T18:54:24.242Z,41.26
2018-04-28T18:56:52.519Z,41.53
2018-04-28T18:59:21.192Z,41.26
2018-04-28T19:01:49.405Z,41.85
2018-04-28T19:04:17.613Z,41.99
2018-04-28T19:06:45.899Z,41.74
2018-04-28T19:09:14.093Z,41.98
2018-04-28T19:11:42.543Z,42.53
2018-04-28T19:14:11.222Z,42.71
2018-04-28T19:16:39.409Z,42.43
2018-04-28T19:19:07.796Z,42.29
2018-04-28T19:21:36.218Z,42.10
2018-04-28T19:24:04.491Z,42.04
2018-04-28T19:26:32.792Z,42.04
2018-04-28T19:29:01.469Z,42.25
2018-04-28T19:31:29.667Z,42.15
2018-04-28T19:33:58.136Z,42.10
2018-04-28T19:36:26.696Z,42.04
2018-04-28T19:38:54.971Z,41.98
2018-04-28T19:41:23.180Z,41.92
2018-04-28T19:43:51.760Z,42.03
2018-04-28T19:46:19.978Z,42.17
2018-04-28T19:48:48.358Z,41.76
2018-04-28T19:51:16.861Z,41.63
2018-04-28T19:53:46.025Z,41.55
2018-04-28T19:56:14.245Z,41.43
2018-04-28T19:58:43.148Z,41.56
2018-04-28T20:01:11.602Z,41.39
2018-04-28T20:03:39.785Z,41.32
2018-04-28T20:06:08.019Z,41.25
2018-04-28T20:08:36.834Z,41.32
2018-04-28T20:11:05.081Z,40.95
2018-04-28T20:13:33.319Z,41.54
2018-04-28T20:16:02.022Z,41.36
2018-04-28T20:18:30.217Z,41.60
2018-04-28T20:20:58.523Z,41.39
2018-04-28T20:23:38.554Z,41.15
2018-04-28T20:26:07.264Z,40.97
2018-04-28T20:28:35.479Z,41.28
2018-04-28T20:31:03.795Z,41.63
2018-04-28T20:33:32.485Z,41.65
2018-04-28T20:36:00.714Z,41.83
2018-04-28T20:38:28.896Z,41.95
2018-04-28T20:40:57.612Z,42.15
2018-04-28T20:43:26.202Z,42.38
2018-04-28T20:45:54.738Z,42.38
2018-04-28T20:48:23.318Z,42.35
2018-04-28T20:50:51.548Z,42.77
2018-04-28T20:53:20.005Z,42.77
2018-04-28T20:55:48.476Z,43.13
2018-04-28T20:58:16.708Z,43.10
2018-04-28T21:00:45.048Z,43.46
2018-04-28T21:03:13.618Z,43.73
2018-04-28T21:05:41.915Z,44.16
2018-04-28T21:08:10.181Z,44.17
2018-04-28T21:10:38.778Z,44.78
2018-04-28T21:13:06.975Z,44.90
2018-04-28T21:15:35.375Z,45.21
2018-04-28T21:18:03.940Z,45.29
2018-04-28T21:20:32.178Z,45.63
2018-04-28T21:23:00.578Z,45.72
2018-04-28T21:25:29.135Z,45.97
2018-04-28T21:27:57.325Z,46.19
2018-04-28T21:30:25.773Z,46.70
2018-04-28T21:32:54.203Z,46.55
2018-04-28T21:35:22.413Z,46.59
2018-04-28T21:37:50.928Z,46.96
2018-04-28T21:40:19.315Z,47.82
2018-04-28T21:42:47.551Z,47.30
2018-04-28T21:45:15.889Z,47.35
2018-04-28T21:47:44.455Z,47.33
2018-04-28T21:50:12.659Z,47.65
2018-04-28T21:52:41.073Z,47.30
2018-04-28T21:55:09.682Z,47.41
2018-04-28T21:57:37.900Z,46.91
2018-04-28T22:00:06.236Z,46.83
2018-04-28T22:02:34.859Z,47.03
2018-04-28T22:05:03.045Z,46.82
2018-04-28T22:07:31.509Z,46.20
2018-04-28T22:10:00.041Z,46.34
2018-04-28T22:12:28.261Z,47.06
2018-04-28T22:14:56.603Z,46.57
2018-04-28T22:17:25.185Z,47.16
2018-04-28T22:19:53.382Z,47.35
2018-04-28T22:22:21.616Z,47.20
2018-04-28T22:24:50.228Z,47.27
2018-04-28T22:27:18.487Z,46.98
2018-04-28T22:29:46.740Z,47.35
2018-04-28T22:32:15.480Z,47.40
2018-04-28T22:34:43.694Z,47.03
2018-04-28T22:37:11.941Z,47.22
2018-04-28T22:39:40.603Z,46.94
2018-04-28T22:42:08.792Z,47.50
2018-04-28T22:44:37.113Z,47.35
2018-04-28T22:47:05.839Z,47.08
2018-04-28T22:49:34.049Z,47.59
2018-04-28T22:52:02.287Z,48.39
2018-04-28T22:54:30.846Z,47.85
2018-04-28T22:56:59.069Z,48.20
2018-04-28T22:59:27.400Z,49.46
2018-04-28T23:01:56.053Z,48.31
2018-04-28T23:04:24.277Z,48.69
2018-04-28T23:06:52.746Z,49.07
2018-04-28T23:09:21.380Z,49.62
2018-04-28T23:11:49.578Z,49.36
2018-04-28T23:14:17.827Z,49.16
2018-04-28T23:16:46.401Z,49.16
2018-04-28T23:19:14.589Z,49.69
2018-04-28T23:21:42.992Z,49.53
2018-04-28T23:24:11.535Z,49.58
2018-04-28T23:26:39.735Z,49.82
2018-04-28T23:29:08.117Z,50.16
2018-04-28T23:31:37.598Z,50.43
2018-04-28T23:34:06.367Z,51.85
2018-04-28T23:36:34.563Z,50.74
2018-04-28T23:39:02.753Z,50.75
2018-04-28T23:41:31.396Z,50.76
2018-04-28T23:43:59.605Z,51.49
2018-04-28T23:46:27.790Z,51.11
2018-04-28T23:48:56.548Z,51.27
2018-04-28T23:51:24.767Z,51.43
2018-04-28T23:53:52.996Z,51.88
2018-04-28T23:56:21.674Z,52.85
2018-04-28T23:58:49.874Z,51.95
